sensor_id;sensor_type;location;lat;lon;timestamp;temperature;humidity
72772;SHT30;60894;42.544;1.516;2023-01-30T00:01:15;-2.55;61.31
72772;SHT30;60894;42.544;1.516;2023-01-30T00:03:44;-2.65;61.74
72772;SHT30;60894;42.544;1.516;2023-01-30T00:06:11;-2.66;63.52
72772;SHT30;60894;42.544;1.516;2023-01-30T00:08:38;-2.75;62.73
72772;SHT30;60894;42.544;1.516;2023-01-30T00:11:07;-2.78;62.57
72772;SHT30;60894;42.544;1.516;2023-01-30T00:13:34;-2.79;62.43
72772;SHT30;60894;42.544;1.516;2023-01-30T00:16:01;-2.85;62.53
72772;SHT30;60894;42.544;1.516;2023-01-30T00:18:29;-2.86;62.49
72772;SHT30;60894;42.544;1.516;2023-01-30T00:20:58;-2.78;61.29
72772;SHT30;60894;42.544;1.516;2023-01-30T00:23:26;-2.83;61.70
72772;SHT30;60894;42.544;1.516;2023-01-30T00:25:54;-2.83;61.57
72772;SHT30;60894;42.544;1.516;2023-01-30T00:28:21;-2.75;62.15
72772;SHT30;60894;42.544;1.516;2023-01-30T00:30:48;-2.73;61.72
72772;SHT30;60894;42.544;1.516;2023-01-30T00:33:16;-2.72;61.29
72772;SHT30;60894;42.544;1.516;2023-01-30T00:35:43;-2.79;61.24
72772;SHT30;60894;42.544;1.516;2023-01-30T00:38:12;-2.92;61.03
72772;SHT30;60894;42.544;1.516;2023-01-30T00:40:39;-2.93;61.53
72772;SHT30;60894;42.544;1.516;2023-01-30T00:43:06;-2.93;61.32
72772;SHT30;60894;42.544;1.516;2023-01-30T00:45:52;-2.92;61.84
72772;SHT30;60894;42.544;1.516;2023-01-30T00:48:37;-2.88;61.38
72772;SHT30;60894;42.544;1.516;2023-01-30T00:51:04;-2.93;60.99
72772;SHT30;60894;42.544;1.516;2023-01-30T00:53:33;-2.80;61.33
72772;SHT30;60894;42.544;1.516;2023-01-30T00:56:00;-2.93;61.69
72772;SHT30;60894;42.544;1.516;2023-01-30T00:58:27;-3.00;61.42
72772;SHT30;60894;42.544;1.516;2023-01-30T01:00:54;-2.96;61.00
72772;SHT30;60894;42.544;1.516;2023-01-30T01:03:21;-3.07;61.24
72772;SHT30;60894;42.544;1.516;2023-01-30T01:05:48;-2.97;61.67
72772;SHT30;60894;42.544;1.516;2023-01-30T01:08:15;-3.01;61.21
72772;SHT30;60894;42.544;1.516;2023-01-30T01:10:44;-3.10;62.00
72772;SHT30;60894;42.544;1.516;2023-01-30T01:13:11;-3.10;62.47
72772;SHT30;60894;42.544;1.516;2023-01-30T01:15:38;-3.23;62.38
72772;SHT30;60894;42.544;1.516;2023-01-30T01:18:05;-3.14;61.25
72772;SHT30;60894;42.544;1.516;2023-01-30T01:20:32;-3.24;62.14
72772;SHT30;60894;42.544;1.516;2023-01-30T01:22:59;-3.14;61.65
72772;SHT30;60894;42.544;1.516;2023-01-30T01:25:26;-3.10;61.64
72772;SHT30;60894;42.544;1.516;2023-01-30T01:27:55;-3.21;61.34
72772;SHT30;60894;42.544;1.516;2023-01-30T01:30:22;-3.36;61.76
72772;SHT30;60894;42.544;1.516;2023-01-30T01:32:49;-3.23;61.53
72772;SHT30;60894;42.544;1.516;2023-01-30T01:35:16;-3.27;61.64
72772;SHT30;60894;42.544;1.516;2023-01-30T01:37:44;-3.31;61.76
72772;SHT30;60894;42.544;1.516;2023-01-30T01:40:17;-3.39;62.24
72772;SHT30;60894;42.544;1.516;2023-01-30T01:43:14;-3.40;62.05
72772;SHT30;60894;42.544;1.516;2023-01-30T01:45:42;-3.34;61.92
72772;SHT30;60894;42.544;1.516;2023-01-30T01:48:13;-3.41;61.59
72772;SHT30;60894;42.544;1.516;2023-01-30T01:50:43;-3.41;62.75
72772;SHT30;60894;42.544;1.516;2023-01-30T01:53:13;-3.43;63.00
72772;SHT30;60894;42.544;1.516;2023-01-30T01:55:42;-3.46;62.09
72772;SHT30;60894;42.544;1.516;2023-01-30T01:58:14;-3.40;61.78
72772;SHT30;60894;42.544;1.516;2023-01-30T02:00:42;-3.55;62.30
72772;SHT30;60894;42.544;1.516;2023-01-30T02:03:14;-3.58;62.08
72772;SHT30;60894;42.544;1.516;2023-01-30T02:05:46;-3.57;61.79
72772;SHT30;60894;42.544;1.516;2023-01-30T02:08:16;-3.68;61.68
72772;SHT30;60894;42.544;1.516;2023-01-30T02:10:49;-3.68;62.89
72772;SHT30;60894;42.544;1.516;2023-01-30T02:13:20;-3.61;62.79
72772;SHT30;60894;42.544;1.516;2023-01-30T02:15:47;-3.58;62.57
72772;SHT30;60894;42.544;1.516;2023-01-30T02:18:14;-3.52;61.47
72772;SHT30;60894;42.544;1.516;2023-01-30T02:27:05;-3.55;61.99
72772;SHT30;60894;42.544;1.516;2023-01-30T02:32:40;-3.60;62.02
72772;SHT30;60894;42.544;1.516;2023-01-30T02:35:15;-3.62;62.23
72772;SHT30;60894;42.544;1.516;2023-01-30T02:37:51;-3.65;61.42
72772;SHT30;60894;42.544;1.516;2023-01-30T02:40:40;-3.58;60.66
72772;SHT30;60894;42.544;1.516;2023-01-30T02:43:14;-3.71;60.99
72772;SHT30;60894;42.544;1.516;2023-01-30T02:45:51;-3.67;60.64
72772;SHT30;60894;42.544;1.516;2023-01-30T02:48:26;-3.82;61.54
72772;SHT30;60894;42.544;1.516;2023-01-30T02:50:57;-3.85;61.41
72772;SHT30;60894;42.544;1.516;2023-01-30T02:53:24;-3.88;61.64
72772;SHT30;60894;42.544;1.516;2023-01-30T02:55:52;-3.91;62.88
72772;SHT30;60894;42.544;1.516;2023-01-30T02:58:20;-3.96;63.53
72772;SHT30;60894;42.544;1.516;2023-01-30T03:04:12;-3.85;62.10
72772;SHT30;60894;42.544;1.516;2023-01-30T03:09:45;-4.02;62.68
72772;SHT30;60894;42.544;1.516;2023-01-30T03:12:17;-3.93;62.69
72772;SHT30;60894;42.544;1.516;2023-01-30T03:14:52;-3.93;61.48
72772;SHT30;60894;42.544;1.516;2023-01-30T03:17:23;-3.92;61.59
72772;SHT30;60894;42.544;1.516;2023-01-30T03:19:54;-3.99;62.04
72772;SHT30;60894;42.544;1.516;2023-01-30T03:22:21;-4.09;62.69
72772;SHT30;60894;42.544;1.516;2023-01-30T03:24:50;-4.05;62.52
72772;SHT30;60894;42.544;1.516;2023-01-30T03:27:18;-4.13;61.84
72772;SHT30;60894;42.544;1.516;2023-01-30T03:29:45;-4.01;61.85
72772;SHT30;60894;42.544;1.516;2023-01-30T03:32:12;-4.07;62.07
72772;SHT30;60894;42.544;1.516;2023-01-30T03:34:39;-4.12;62.39
72772;SHT30;60894;42.544;1.516;2023-01-30T03:37:08;-4.10;62.60
72772;SHT30;60894;42.544;1.516;2023-01-30T03:39:35;-4.16;62.18
72772;SHT30;60894;42.544;1.516;2023-01-30T03:42:03;-4.13;61.63
72772;SHT30;60894;42.544;1.516;2023-01-30T03:44:30;-4.02;60.81
72772;SHT30;60894;42.544;1.516;2023-01-30T03:46:57;-4.07;61.74
72772;SHT30;60894;42.544;1.516;2023-01-30T03:49:24;-4.09;62.34
72772;SHT30;60894;42.544;1.516;2023-01-30T03:51:51;-4.19;61.99
72772;SHT30;60894;42.544;1.516;2023-01-30T03:54:19;-4.06;61.68
72772;SHT30;60894;42.544;1.516;2023-01-30T03:56:46;-4.05;60.71
72772;SHT30;60894;42.544;1.516;2023-01-30T03:59:13;-4.24;60.91
72772;SHT30;60894;42.544;1.516;2023-01-30T04:01:40;-4.24;62.03
72772;SHT30;60894;42.544;1.516;2023-01-30T04:04:07;-4.22;61.68
72772;SHT30;60894;42.544;1.516;2023-01-30T04:06:34;-4.20;61.79
72772;SHT30;60894;42.544;1.516;2023-01-30T04:09:01;-4.19;61.29
72772;SHT30;60894;42.544;1.516;2023-01-30T04:11:30;-4.19;61.08
72772;SHT30;60894;42.544;1.516;2023-01-30T04:13:57;-4.14;61.84
72772;SHT30;60894;42.544;1.516;2023-01-30T04:16:25;-4.20;60.78
72772;SHT30;60894;42.544;1.516;2023-01-30T04:18:53;-4.22;61.37
72772;SHT30;60894;42.544;1.516;2023-01-30T04:21:20;-4.20;61.90
72772;SHT30;60894;42.544;1.516;2023-01-30T04:23:47;-4.12;61.72
72772;SHT30;60894;42.544;1.516;2023-01-30T04:26:14;-3.98;59.86
72772;SHT30;60894;42.544;1.516;2023-01-30T04:28:43;-4.12;60.58
72772;SHT30;60894;42.544;1.516;2023-01-30T04:31:10;-4.26;60.55
72772;SHT30;60894;42.544;1.516;2023-01-30T04:33:37;-4.19;61.10
72772;SHT30;60894;42.544;1.516;2023-01-30T04:36:06;-4.16;61.75
72772;SHT30;60894;42.544;1.516;2023-01-30T04:38:33;-4.29;62.18
72772;SHT30;60894;42.544;1.516;2023-01-30T04:41:01;-4.29;62.03
72772;SHT30;60894;42.544;1.516;2023-01-30T04:43:29;-4.27;61.64
72772;SHT30;60894;42.544;1.516;2023-01-30T04:45:57;-4.24;61.10
72772;SHT30;60894;42.544;1.516;2023-01-30T04:48:25;-4.23;61.03
72772;SHT30;60894;42.544;1.516;2023-01-30T04:50:54;-4.24;60.42
72772;SHT30;60894;42.544;1.516;2023-01-30T04:53:21;-4.26;60.72
72772;SHT30;60894;42.544;1.516;2023-01-30T04:55:48;-4.27;59.52
72772;SHT30;60894;42.544;1.516;2023-01-30T04:58:16;-4.27;61.08
72772;SHT30;60894;42.544;1.516;2023-01-30T05:00:44;-4.22;60.48
72772;SHT30;60894;42.544;1.516;2023-01-30T05:03:13;-4.37;61.00
72772;SHT30;60894;42.544;1.516;2023-01-30T05:05:40;-4.40;61.94
72772;SHT30;60894;42.544;1.516;2023-01-30T05:08:07;-4.36;61.95
72772;SHT30;60894;42.544;1.516;2023-01-30T05:10:34;-4.49;62.19
72772;SHT30;60894;42.544;1.516;2023-01-30T05:13:02;-4.44;60.97
72772;SHT30;60894;42.544;1.516;2023-01-30T05:15:29;-4.40;61.59
72772;SHT30;60894;42.544;1.516;2023-01-30T05:17:56;-4.39;61.29
72772;SHT30;60894;42.544;1.516;2023-01-30T05:20:25;-4.39;61.37
72772;SHT30;60894;42.544;1.516;2023-01-30T05:22:52;-4.36;60.57
72772;SHT30;60894;42.544;1.516;2023-01-30T05:25:19;-4.53;58.97
72772;SHT30;60894;42.544;1.516;2023-01-30T05:27:46;-4.49;59.14
72772;SHT30;60894;42.544;1.516;2023-01-30T05:30:13;-4.54;61.08
72772;SHT30;60894;42.544;1.516;2023-01-30T05:32:40;-4.53;61.36
72772;SHT30;60894;42.544;1.516;2023-01-30T05:35:07;-4.58;62.21
72772;SHT30;60894;42.544;1.516;2023-01-30T05:37:36;-4.47;61.93
72772;SHT30;60894;42.544;1.516;2023-01-30T05:40:04;-4.54;61.49
72772;SHT30;60894;42.544;1.516;2023-01-30T05:42:31;-4.47;61.22
72772;SHT30;60894;42.544;1.516;2023-01-30T05:44:58;-4.46;61.31
72772;SHT30;60894;42.544;1.516;2023-01-30T05:47:25;-4.50;61.75
72772;SHT30;60894;42.544;1.516;2023-01-30T05:49:52;-4.46;61.97
72772;SHT30;60894;42.544;1.516;2023-01-30T05:52:19;-4.53;61.64
72772;SHT30;60894;42.544;1.516;2023-01-30T05:54:48;-4.53;61.32
72772;SHT30;60894;42.544;1.516;2023-01-30T05:57:15;-4.61;60.57
72772;SHT30;60894;42.544;1.516;2023-01-30T05:59:42;-4.63;61.17
72772;SHT30;60894;42.544;1.516;2023-01-30T06:02:09;-4.49;62.29
72772;SHT30;60894;42.544;1.516;2023-01-30T06:04:36;-4.67;62.54
72772;SHT30;60894;42.544;1.516;2023-01-30T06:07:03;-4.65;62.10
72772;SHT30;60894;42.544;1.516;2023-01-30T06:09:30;-4.53;61.50
72772;SHT30;60894;42.544;1.516;2023-01-30T06:11:58;-4.34;60.55
72772;SHT30;60894;42.544;1.516;2023-01-30T06:14:25;-4.37;60.21
72772;SHT30;60894;42.544;1.516;2023-01-30T06:16:52;-4.47;59.68
72772;SHT30;60894;42.544;1.516;2023-01-30T06:19:19;-4.57;61.23
72772;SHT30;60894;42.544;1.516;2023-01-30T06:21:46;-4.61;61.85
72772;SHT30;60894;42.544;1.516;2023-01-30T06:24:13;-4.61;61.99
72772;SHT30;60894;42.544;1.516;2023-01-30T06:26:40;-4.57;61.95
72772;SHT30;60894;42.544;1.516;2023-01-30T06:29:09;-4.57;61.27
72772;SHT30;60894;42.544;1.516;2023-01-30T06:31:36;-4.54;60.93
72772;SHT30;60894;42.544;1.516;2023-01-30T06:34:03;-4.65;62.35
72772;SHT30;60894;42.544;1.516;2023-01-30T06:36:31;-4.64;62.35
72772;SHT30;60894;42.544;1.516;2023-01-30T06:38:58;-4.67;61.40
72772;SHT30;60894;42.544;1.516;2023-01-30T06:41:25;-4.63;61.66
72772;SHT30;60894;42.544;1.516;2023-01-30T06:43:52;-4.65;60.57
72772;SHT30;60894;42.544;1.516;2023-01-30T06:46:21;-4.42;61.07
72772;SHT30;60894;42.544;1.516;2023-01-30T06:48:48;-4.56;60.91
72772;SHT30;60894;42.544;1.516;2023-01-30T06:51:15;-4.57;62.28
72772;SHT30;60894;42.544;1.516;2023-01-30T06:53:42;-4.52;61.46
72772;SHT30;60894;42.544;1.516;2023-01-30T06:56:09;-4.54;60.35
72772;SHT30;60894;42.544;1.516;2023-01-30T06:58:36;-4.32;60.38
72772;SHT30;60894;42.544;1.516;2023-01-30T07:01:03;-4.19;61.32
72772;SHT30;60894;42.544;1.516;2023-01-30T07:03:32;-4.22;60.46
72772;SHT30;60894;42.544;1.516;2023-01-30T07:05:59;-4.37;59.95
72772;SHT30;60894;42.544;1.516;2023-01-30T07:08:26;-4.30;60.83
72772;SHT30;60894;42.544;1.516;2023-01-30T07:10:53;-4.32;60.88
72772;SHT30;60894;42.544;1.516;2023-01-30T07:13:20;-4.33;60.97
72772;SHT30;60894;42.544;1.516;2023-01-30T07:15:47;-4.36;61.44
72772;SHT30;60894;42.544;1.516;2023-01-30T07:18:15;-4.40;61.38
72772;SHT30;60894;42.544;1.516;2023-01-30T07:20:47;-4.42;59.78
72772;SHT30;60894;42.544;1.516;2023-01-30T07:23:14;-4.29;59.93
72772;SHT30;60894;42.544;1.516;2023-01-30T07:25:41;-4.34;61.50
72772;SHT30;60894;42.544;1.516;2023-01-30T07:28:08;-4.40;61.96
72772;SHT30;60894;42.544;1.516;2023-01-30T07:30:35;-4.23;60.97
72772;SHT30;60894;42.544;1.516;2023-01-30T07:33:04;-4.29;61.39
72772;SHT30;60894;42.544;1.516;2023-01-30T07:35:33;-4.32;61.10
72772;SHT30;60894;42.544;1.516;2023-01-30T07:38:02;-4.32;61.56
72772;SHT30;60894;42.544;1.516;2023-01-30T07:40:29;-4.34;62.74
72772;SHT30;60894;42.544;1.516;2023-01-30T07:42:57;-4.29;62.06
72772;SHT30;60894;42.544;1.516;2023-01-30T07:45:28;-4.42;60.94
72772;SHT30;60894;42.544;1.516;2023-01-30T07:47:57;-4.34;61.07
72772;SHT30;60894;42.544;1.516;2023-01-30T07:50:24;-4.39;60.36
72772;SHT30;60894;42.544;1.516;2023-01-30T07:52:51;-4.40;60.32
72772;SHT30;60894;42.544;1.516;2023-01-30T07:55:19;-4.30;62.78
72772;SHT30;60894;42.544;1.516;2023-01-30T07:57:46;-4.20;62.01
72772;SHT30;60894;42.544;1.516;2023-01-30T08:00:14;-4.12;60.81
72772;SHT30;60894;42.544;1.516;2023-01-30T08:02:41;-4.13;61.08
72772;SHT30;60894;42.544;1.516;2023-01-30T08:05:09;-4.01;61.48
72772;SHT30;60894;42.544;1.516;2023-01-30T08:07:36;-3.95;61.54
72772;SHT30;60894;42.544;1.516;2023-01-30T08:10:03;-3.54;70.12
72772;SHT30;60894;42.544;1.516;2023-01-30T08:12:32;-2.82;69.59
72772;SHT30;60894;42.544;1.516;2023-01-30T08:14:59;-2.59;69.12
72772;SHT30;60894;42.544;1.516;2023-01-30T08:17:26;-2.14;68.37
72772;SHT30;60894;42.544;1.516;2023-01-30T08:19:53;-1.07;74.66
72772;SHT30;60894;42.544;1.516;2023-01-30T08:22:20;-0.79;62.33
72772;SHT30;60894;42.544;1.516;2023-01-30T08:24:47;-0.21;65.44
72772;SHT30;60894;42.544;1.516;2023-01-30T08:27:14;0.76;66.27
72772;SHT30;60894;42.544;1.516;2023-01-30T08:29:43;0.08;49.88
72772;SHT30;60894;42.544;1.516;2023-01-30T08:32:10;-0.56;50.81
72772;SHT30;60894;42.544;1.516;2023-01-30T08:34:37;-0.98;52.67
72772;SHT30;60894;42.544;1.516;2023-01-30T08:37:04;-1.49;53.13
72772;SHT30;60894;42.544;1.516;2023-01-30T08:39:32;-1.72;55.02
72772;SHT30;60894;42.544;1.516;2023-01-30T08:41:59;-1.83;54.98
72772;SHT30;60894;42.544;1.516;2023-01-30T08:44:26;-2.14;55.28
72772;SHT30;60894;42.544;1.516;2023-01-30T08:46:54;-2.13;57.55
72772;SHT30;60894;42.544;1.516;2023-01-30T08:49:22;-2.06;56.11
72772;SHT30;60894;42.544;1.516;2023-01-30T08:51:51;-2.06;56.33
72772;SHT30;60894;42.544;1.516;2023-01-30T08:54:18;-1.91;56.15
72772;SHT30;60894;42.544;1.516;2023-01-30T08:56:45;-1.96;56.14
72772;SHT30;60894;42.544;1.516;2023-01-30T08:59:12;-1.89;56.10
72772;SHT30;60894;42.544;1.516;2023-01-30T09:01:39;-1.79;55.64
72772;SHT30;60894;42.544;1.516;2023-01-30T09:04:08;-1.55;53.61
72772;SHT30;60894;42.544;1.516;2023-01-30T09:06:35;-1.39;54.11
72772;SHT30;60894;42.544;1.516;2023-01-30T09:09:03;-1.35;53.83
72772;SHT30;60894;42.544;1.516;2023-01-30T09:11:30;-1.11;54.56
72772;SHT30;60894;42.544;1.516;2023-01-30T09:13:57;-0.93;53.50
72772;SHT30;60894;42.544;1.516;2023-01-30T09:16:24;-0.72;52.39
72772;SHT30;60894;42.544;1.516;2023-01-30T09:18:52;-0.39;53.46
72772;SHT30;60894;42.544;1.516;2023-01-30T09:21:20;-0.36;52.02
72772;SHT30;60894;42.544;1.516;2023-01-30T09:23:47;-0.18;51.35
72772;SHT30;60894;42.544;1.516;2023-01-30T09:26:14;0.02;50.56
72772;SHT30;60894;42.544;1.516;2023-01-30T09:28:41;0.16;51.03
72772;SHT30;60894;42.544;1.516;2023-01-30T09:31:11;0.37;49.51
72772;SHT30;60894;42.544;1.516;2023-01-30T09:33:39;0.58;48.86
72772;SHT30;60894;42.544;1.516;2023-01-30T09:36:07;0.71;46.51
72772;SHT30;60894;42.544;1.516;2023-01-30T09:38:36;1.07;46.69
72772;SHT30;60894;42.544;1.516;2023-01-30T09:41:27;1.27;45.49
72772;SHT30;60894;42.544;1.516;2023-01-30T09:44:12;1.29;45.02
72772;SHT30;60894;42.544;1.516;2023-01-30T09:46:47;1.46;43.79
72772;SHT30;60894;42.544;1.516;2023-01-30T09:49:26;1.73;44.51
72772;SHT30;60894;42.544;1.516;2023-01-30T09:51:59;1.90;43.63
72772;SHT30;60894;42.544;1.516;2023-01-30T09:54:31;2.27;44.20
72772;SHT30;60894;42.544;1.516;2023-01-30T09:57:09;2.24;41.22
72772;SHT30;60894;42.544;1.516;2023-01-30T09:59:54;2.56;42.00
72772;SHT30;60894;42.544;1.516;2023-01-30T10:02:34;2.88;42.96
72772;SHT30;60894;42.544;1.516;2023-01-30T10:05:03;2.89;40.28
72772;SHT30;60894;42.544;1.516;2023-01-30T10:07:41;3.16;39.70
72772;SHT30;60894;42.544;1.516;2023-01-30T10:10:18;3.51;38.26
72772;SHT30;60894;42.544;1.516;2023-01-30T10:12:54;3.91;37.97
72772;SHT30;60894;42.544;1.516;2023-01-30T10:15:33;4.26;36.75
72772;SHT30;60894;42.544;1.516;2023-01-30T10:18:19;4.68;35.92
72772;SHT30;60894;42.544;1.516;2023-01-30T10:21:02;4.83;35.73
72772;SHT30;60894;42.544;1.516;2023-01-30T10:23:54;5.08;34.89
72772;SHT30;60894;42.544;1.516;2023-01-30T10:26:27;5.11;36.12
72772;SHT30;60894;42.544;1.516;2023-01-30T10:28:59;5.47;38.03
72772;SHT30;60894;42.544;1.516;2023-01-30T10:31:31;5.43;37.12
72772;SHT30;60894;42.544;1.516;2023-01-30T10:34:01;5.25;37.73
72772;SHT30;60894;42.544;1.516;2023-01-30T10:36:38;5.22;38.16
72772;SHT30;60894;42.544;1.516;2023-01-30T10:39:16;5.18;38.37
72772;SHT30;60894;42.544;1.516;2023-01-30T10:41:51;5.15;38.51
72772;SHT30;60894;42.544;1.516;2023-01-30T10:44:21;5.25;38.38
72772;SHT30;60894;42.544;1.516;2023-01-30T10:47:17;5.43;38.17
72772;SHT30;60894;42.544;1.516;2023-01-30T10:49:49;5.71;38.52
72772;SHT30;60894;42.544;1.516;2023-01-30T10:52:28;6.27;37.93
72772;SHT30;60894;42.544;1.516;2023-01-30T10:55:09;6.11;35.45
72772;SHT30;60894;42.544;1.516;2023-01-30T10:57:46;5.81;35.95
72772;SHT30;60894;42.544;1.516;2023-01-30T11:00:21;5.85;36.32
72772;SHT30;60894;42.544;1.516;2023-01-30T11:02:59;5.96;35.30
72772;SHT30;60894;42.544;1.516;2023-01-30T11:05:37;6.21;34.94
72772;SHT30;60894;42.544;1.516;2023-01-30T11:08:14;6.39;34.64
72772;SHT30;60894;42.544;1.516;2023-01-30T11:10:44;6.73;33.94
72772;SHT30;60894;42.544;1.516;2023-01-30T11:13:16;6.88;33.18
72772;SHT30;60894;42.544;1.516;2023-01-30T11:15:45;7.31;33.54
72772;SHT30;60894;42.544;1.516;2023-01-30T11:18:14;7.60;32.97
72772;SHT30;60894;42.544;1.516;2023-01-30T11:20:44;7.60;32.40
72772;SHT30;60894;42.544;1.516;2023-01-30T11:23:25;8.05;31.50
72772;SHT30;60894;42.544;1.516;2023-01-30T11:25:56;8.14;31.31
72772;SHT30;60894;42.544;1.516;2023-01-30T11:28:26;8.39;30.73
72772;SHT30;60894;42.544;1.516;2023-01-30T11:30:55;8.78;30.97
72772;SHT30;60894;42.544;1.516;2023-01-30T11:33:30;8.92;29.34
72772;SHT30;60894;42.544;1.516;2023-01-30T11:35:59;8.64;30.02
72772;SHT30;60894;42.544;1.516;2023-01-30T11:38:28;8.02;30.20
72772;SHT30;60894;42.544;1.516;2023-01-30T11:41:04;7.77;31.19
72772;SHT30;60894;42.544;1.516;2023-01-30T11:43:33;7.37;31.01
72772;SHT30;60894;42.544;1.516;2023-01-30T11:46:01;7.23;31.65
72772;SHT30;60894;42.544;1.516;2023-01-30T11:48:31;7.03;31.82
72772;SHT30;60894;42.544;1.516;2023-01-30T11:51:00;6.97;31.92
72772;SHT30;60894;42.544;1.516;2023-01-30T11:53:32;6.99;32.38
72772;SHT30;60894;42.544;1.516;2023-01-30T11:56:05;6.85;31.19
72772;SHT30;60894;42.544;1.516;2023-01-30T11:58:37;6.85;31.26
72772;SHT30;60894;42.544;1.516;2023-01-30T12:01:08;7.01;31.94
72772;SHT30;60894;42.544;1.516;2023-01-30T12:03:42;7.11;32.13
72772;SHT30;60894;42.544;1.516;2023-01-30T12:06:11;6.99;32.02
72772;SHT30;60894;42.544;1.516;2023-01-30T12:08:41;6.86;30.48
72772;SHT30;60894;42.544;1.516;2023-01-30T12:11:25;6.85;31.36
72772;SHT30;60894;42.544;1.516;2023-01-30T12:14:02;6.75;31.08
72772;SHT30;60894;42.544;1.516;2023-01-30T12:16:44;6.97;31.27
72772;SHT30;60894;42.544;1.516;2023-01-30T12:19:22;6.66;30.35
72772;SHT30;60894;42.544;1.516;2023-01-30T12:21:56;6.85;31.90
72772;SHT30;60894;42.544;1.516;2023-01-30T12:24:29;6.73;30.42
72772;SHT30;60894;42.544;1.516;2023-01-30T12:27:00;6.68;30.88
72772;SHT30;60894;42.544;1.516;2023-01-30T12:29:33;6.56;31.02
72772;SHT30;60894;42.544;1.516;2023-01-30T12:32:06;6.52;31.21
72772;SHT30;60894;42.544;1.516;2023-01-30T12:34:34;6.83;31.87
72772;SHT30;60894;42.544;1.516;2023-01-30T12:37:14;7.11;31.97
72772;SHT30;60894;42.544;1.516;2023-01-30T12:39:55;7.20;30.96
72772;SHT30;60894;42.544;1.516;2023-01-30T12:42:47;7.30;30.64
72772;SHT30;60894;42.544;1.516;2023-01-30T12:45:23;7.40;30.14
72772;SHT30;60894;42.544;1.516;2023-01-30T12:48:07;7.19;31.09
72772;SHT30;60894;42.544;1.516;2023-01-30T12:50:50;6.97;31.74
72772;SHT30;60894;42.544;1.516;2023-01-30T12:53:26;7.03;31.09
72772;SHT30;60894;42.544;1.516;2023-01-30T12:56:09;7.06;31.19
72772;SHT30;60894;42.544;1.516;2023-01-30T12:58:45;7.16;31.64
72772;SHT30;60894;42.544;1.516;2023-01-30T13:01:25;7.04;31.01
72772;SHT30;60894;42.544;1.516;2023-01-30T13:03:59;7.13;30.93
72772;SHT30;60894;42.544;1.516;2023-01-30T13:06:49;7.31;31.65
72772;SHT30;60894;42.544;1.516;2023-01-30T13:09:38;7.35;30.98
72772;SHT30;60894;42.544;1.516;2023-01-30T13:12:14;7.30;31.31
72772;SHT30;60894;42.544;1.516;2023-01-30T13:14:49;7.23;30.65
72772;SHT30;60894;42.544;1.516;2023-01-30T13:17:40;8.22;31.29
72772;SHT30;60894;42.544;1.516;2023-01-30T13:20:18;8.59;28.83
72772;SHT30;60894;42.544;1.516;2023-01-30T13:22:53;7.78;29.73
72772;SHT30;60894;42.544;1.516;2023-01-30T13:25:26;7.44;31.05
72772;SHT30;60894;42.544;1.516;2023-01-30T13:27:59;7.51;30.90
72772;SHT30;60894;42.544;1.516;2023-01-30T13:30:30;7.91;26.58
72772;SHT30;60894;42.544;1.516;2023-01-30T13:33:05;7.93;29.69
72772;SHT30;60894;42.544;1.516;2023-01-30T13:35:41;8.46;29.83
72772;SHT30;60894;42.544;1.516;2023-01-30T13:38:16;8.94;29.09
72772;SHT30;60894;42.544;1.516;2023-01-30T13:40:44;9.18;28.65
72772;SHT30;60894;42.544;1.516;2023-01-30T13:43:17;9.44;28.59
72772;SHT30;60894;42.544;1.516;2023-01-30T13:45:48;10.35;28.14
72772;SHT30;60894;42.544;1.516;2023-01-30T13:48:31;10.65;27.58
72772;SHT30;60894;42.544;1.516;2023-01-30T13:51:11;10.66;26.26
72772;SHT30;60894;42.544;1.516;2023-01-30T13:53:45;10.66;25.31
72772;SHT30;60894;42.544;1.516;2023-01-30T13:56:20;11.58;23.79
72772;SHT30;60894;42.544;1.516;2023-01-30T13:58:55;12.18;17.23
72772;SHT30;60894;42.544;1.516;2023-01-30T14:04:50;13.12;17.63
72772;SHT30;60894;42.544;1.516;2023-01-30T14:07:27;13.38;15.52
72772;SHT30;60894;42.544;1.516;2023-01-30T14:10:12;13.72;14.89
72772;SHT30;60894;42.544;1.516;2023-01-30T14:12:41;14.13;15.30
72772;SHT30;60894;42.544;1.516;2023-01-30T14:15:23;14.13;14.73
72772;SHT30;60894;42.544;1.516;2023-01-30T14:17:58;13.86;14.68
72772;SHT30;60894;42.544;1.516;2023-01-30T14:20:29;14.30;14.55
72772;SHT30;60894;42.544;1.516;2023-01-30T14:22:58;14.34;14.92
72772;SHT30;60894;42.544;1.516;2023-01-30T14:25:44;14.55;14.26
72772;SHT30;60894;42.544;1.516;2023-01-30T14:34:46;13.86;14.59
72772;SHT30;60894;42.544;1.516;2023-01-30T14:40:32;13.91;14.07
72772;SHT30;60894;42.544;1.516;2023-01-30T14:43:25;13.85;14.75
72772;SHT30;60894;42.544;1.516;2023-01-30T14:45:55;13.48;14.91
72772;SHT30;60894;42.544;1.516;2023-01-30T14:48:27;13.59;15.81
72772;SHT30;60894;42.544;1.516;2023-01-30T14:51:10;14.20;15.01
72772;SHT30;60894;42.544;1.516;2023-01-30T14:53:47;14.06;15.28
72772;SHT30;60894;42.544;1.516;2023-01-30T14:56:17;14.42;14.76
72772;SHT30;60894;42.544;1.516;2023-01-30T14:58:56;14.55;15.19
72772;SHT30;60894;42.544;1.516;2023-01-30T15:01:25;14.27;14.87
72772;SHT30;60894;42.544;1.516;2023-01-30T15:03:53;13.61;15.06
72772;SHT30;60894;42.544;1.516;2023-01-30T15:06:20;12.40;16.59
72772;SHT30;60894;42.544;1.516;2023-01-30T15:08:51;11.92;17.52
72772;SHT30;60894;42.544;1.516;2023-01-30T15:11:23;11.58;17.80
72772;SHT30;60894;42.544;1.516;2023-01-30T15:14:03;11.26;18.22
72772;SHT30;60894;42.544;1.516;2023-01-30T15:16:45;10.89;18.94
72772;SHT30;60894;42.544;1.516;2023-01-30T15:19:30;10.41;20.32
72772;SHT30;60894;42.544;1.516;2023-01-30T15:22:12;10.17;21.36
72772;SHT30;60894;42.544;1.516;2023-01-30T15:28:01;9.62;19.77
72772;SHT30;60894;42.544;1.516;2023-01-30T15:30:43;9.05;22.66
72772;SHT30;60894;42.544;1.516;2023-01-30T15:33:15;9.18;21.03
72772;SHT30;60894;42.544;1.516;2023-01-30T15:35:43;9.31;21.41
72772;SHT30;60894;42.544;1.516;2023-01-30T15:38:24;9.28;21.89
72772;SHT30;60894;42.544;1.516;2023-01-30T15:40:52;9.33;20.76
72772;SHT30;60894;42.544;1.516;2023-01-30T15:43:44;9.15;22.39
72772;SHT30;60894;42.544;1.516;2023-01-30T15:46:20;9.05;21.57
72772;SHT30;60894;42.544;1.516;2023-01-30T15:49:09;9.08;23.86
72772;SHT30;60894;42.544;1.516;2023-01-30T15:51:41;8.78;23.23
72772;SHT30;60894;42.544;1.516;2023-01-30T15:54:14;8.75;24.16
72772;SHT30;60894;42.544;1.516;2023-01-30T15:56:43;8.84;21.17
72772;SHT30;60894;42.544;1.516;2023-01-30T15:59:23;8.67;22.89
72772;SHT30;60894;42.544;1.516;2023-01-30T16:01:58;8.56;23.73
72772;SHT30;60894;42.544;1.516;2023-01-30T16:04:27;8.46;24.97
72772;SHT30;60894;42.544;1.516;2023-01-30T16:06:54;8.53;22.66
72772;SHT30;60894;42.544;1.516;2023-01-30T16:09:23;8.59;20.65
72772;SHT30;60894;42.544;1.516;2023-01-30T16:11:51;8.44;21.90
72772;SHT30;60894;42.544;1.516;2023-01-30T16:14:21;8.46;21.29
72772;SHT30;60894;42.544;1.516;2023-01-30T16:16:51;8.44;21.34
72772;SHT30;60894;42.544;1.516;2023-01-30T16:19:23;8.44;20.28
72772;SHT30;60894;42.544;1.516;2023-01-30T16:21:55;8.44;19.75
72772;SHT30;60894;42.544;1.516;2023-01-30T16:24:26;8.56;20.12
72772;SHT30;60894;42.544;1.516;2023-01-30T16:26:56;8.32;22.35
72772;SHT30;60894;42.544;1.516;2023-01-30T16:29:26;8.10;24.47
72772;SHT30;60894;42.544;1.516;2023-01-30T16:31:54;7.88;24.14